Terminal Aerodrome Forecast
Issued by NWS

Home | Current Version | Previous Version | Text Only | Print | Product List | Glossary On
Versions: 1 2 3 4 5 6 7 8 9 10 11 12 13 14 15 16 17 18 19 20 21 22 23 24 25 26 27 28
000
FTUS41 KCLE 231600 AAD
TAFFDY
TAF AMD
KFDY 231612Z 2316/2412 30003KT 1/4SM FG OVC001
     FM231700 27005KT P6SM SCT015
     FM231800 25005KT P6SM SCT250
     FM232300 22003KT P6SM BKN250=

USA.gov is the U.S. government's official web portal to all federal, state and local government web resources and services.